Vizconde de Eza — EAXB — position and weather

sailwx.info

Track history (hours):
 
Tides and Currents Weather Stations Pressure Air Temp Water Temp Dewpoint Dewpoint Depression Visibility Wind Speed Wind Dir Waves Ship Positions

Oceanographic research ship Vizconde de Eza (Spain)

Detailed information on ship capabilities available from University of Delaware's Ocean Information Center.

Last reported at 2019-Apr-18 05:45 UTC. Time now 2019-Apr-18 10:21 UTC.
Position N 45°18' W 003°16'.

Length 53 m; draft 5.8 m.

Type: Other ship. MMSI: 224582000.

Date/timePositionNaut miles runAvg speedWind from/ knotsBaromVisibWave heightAir tempDewpointWater temp
2019-Apr-18 05:45N 45°18' W 003°16'2411.0
2019-Apr-18 03:31N 44°54' W 003°24'010.9
2019-Apr-18 03:30N 44°54' W 003°24'611.2
2019-Apr-18 02:59N 44°48' W 003°25'2611.1
2019-Apr-18 00:38N 44°22' W 003°32'2011.2
2019-Apr-17 22:54N 44°03' W 003°37'511.0
2019-Apr-17 22:26N 43°58' W 003°38'510.9
2019-Apr-17 21:57N 43°53' W 003°39'510.9
2019-Apr-17 21:30N 43°48' W 003°40'511.0
2019-Apr-17 21:00N 43°43' W 003°41'611.2
2019-Apr-17 20:30N 43°37' W 003°43'610.6
2019-Apr-17 19:59N 43°32' W 003°44'4 9.0
2019-Apr-17 19:30N 43°28' W 003°47'2 0.8
2019-Apr-17 17:09N 43°27' W 003°49'0 0.0
2019-Apr-17 14:51N 43°27' W 003°49'0 0.7
2019-Apr-17 14:30N 43°27' W 003°49'4 6.8
2019-Apr-17 13:59N 43°29' W 003°45'4 9.3
2019-Apr-17 13:30N 43°32' W 003°40'611.1
2019-Apr-17 13:00N 43°34' W 003°33'611.1
2019-Apr-17 12:30N 43°35' W 003°26'611.2
2019-Apr-17 12:00N 43°36' W 003°18'611.1
2019-Apr-17 11:30N 43°37' W 003°11'1 2.4
2019-Apr-17 11:00N 43°37' W 003°09'0 0.6
2019-Apr-17 10:30N 43°37' W 003°09'1 1.2
2019-Apr-17 10:00N 43°37' W 003°10'510.2
2019-Apr-17 09:30N 43°32' W 003°10'510.0
2019-Apr-17 09:00N 43°27' W 003°10'2 3.1
2019-Apr-17 08:30N 43°26' W 003°11'3 5.7
2019-Apr-17 08:00N 43°28' W 003°13'510.4
2019-Apr-17 07:30N 43°33' W 003°16'510.3
2019-Apr-17 07:00N 43°38' W 003°18'510.1
2019-Apr-17 06:30N 43°42' W 003°21'510.1
2019-Apr-17 06:00N 43°47' W 003°23'510.1
2019-Apr-17 05:30N 43°52' W 003°25'510.0
2019-Apr-17 05:00N 43°57' W 003°27'11 4.7
2019-Apr-17 02:42N 44°07' W 003°32'410.7
2019-Apr-17 02:18N 44°03' W 003°32'310.8
2019-Apr-17 02:00N 43°60' W 003°31'610.6
2019-Apr-17 01:28N 43°54' W 003°30'2 3.3
2019-Apr-17 01:00N 43°53' W 003°30'0 0.2
2019-Apr-17 00:30N 43°53' W 003°30'1 2.1
2019-Apr-17 00:00N 43°53' W 003°31'5 9.1
2019-Apr-16 23:30N 43°48' W 003°31'5 9.8
2019-Apr-16 23:00N 43°43' W 003°30'5 9.7
2019-Apr-16 22:30N 43°38' W 003°30'1 1.6
2019-Apr-16 22:00N 43°38' W 003°30'1 1.5
2019-Apr-16 21:30N 43°38' W 003°31'5 9.4
2019-Apr-16 21:00N 43°38' W 003°37'5 9.8
2019-Apr-16 20:30N 43°38' W 003°44'1 2.0
2019-Apr-16 20:00N 43°38' W 003°45'0 0.4
2019-Apr-16 19:30N 43°38' W 003°46'2 3.6
2019-Apr-16 19:00N 43°39' W 003°46'5 9.4
2019-Apr-16 18:30N 43°44' W 003°46'510.1
2019-Apr-16 18:00N 43°49' W 003°46'4 7.9
2019-Apr-16 17:30N 43°53' W 003°45'1 1.1
2019-Apr-16 16:59N 43°53' W 003°46'3 5.7
2019-Apr-16 16:28N 43°54' W 003°50'6 9.8
2019-Apr-16 15:53N 43°58' W 003°56'410.0
2019-Apr-16 15:30N 44°01' W 003°59'5 9.9
2019-Apr-16 15:00N 44°04' W 004°04'27 1.4
2019-Apr-15 18:39N 43°37' W 004°11'0 0.0
2019-Apr-15 18:27N 43°37' W 004°11'1 1.8
2019-Apr-15 17:51N 43°38' W 004°10'9 5.2
2019-Apr-15 16:05N 43°28' W 004°10'32 2.5
2019-Apr-15 03:31N 43°38' W 004°51'0 0.1
2019-Apr-15 03:30N 43°38' W 004°51'15 4.5
2019-Apr-15 00:16N 43°52' W 004°51'58 2.8
2019-Apr-14 03:34N 44°03' W 006°11'2 9.7
2019-Apr-14 03:24N 44°01' W 006°10'4 9.8
2019-Apr-14 03:00N 43°57' W 006°10'5 8.2
2019-Apr-14 02:24N 43°52' W 006°10'0 0.5
2019-Apr-14 02:00N 43°52' W 006°10'3 3.4
2019-Apr-14 01:07N 43°49' W 006°11'1 9.9
2019-Apr-14 01:00N 43°48' W 006°11'510.0
2019-Apr-14 00:30N 43°43' W 006°10'5 2.4
2019-Apr-13 22:17N 43°42' W 006°18'3 8.8
2019-Apr-13 21:58N 43°45' W 006°20'0 0.0
2019-Apr-13 21:30N 43°45' W 006°20'0 0.0
2019-Apr-13 21:00N 43°45' W 006°20'0 0.0
2019-Apr-13 20:30N 43°45' W 006°20'3 6.9
2019-Apr-13 20:00N 43°47' W 006°23'4 8.0
2019-Apr-13 19:30N 43°50' W 006°27'3 6.1
2019-Apr-13 19:00N 43°53' W 006°30'0 0.0
2019-Apr-13 17:39N 43°53' W 006°30'16 7.4
2019-Apr-13 15:34N 43°37' W 006°30'0 0.1
2019-Apr-13 15:25N 43°37' W 006°30'  
2019-Apr-10 16:51N 42°15' W 009°19'4 8.8
2019-Apr-10 16:25N 42°15' W 009°14'3 6.1
2019-Apr-10 16:00N 42°15' W 009°10'1 1.4
2019-Apr-10 15:28N 42°15' W 009°09'2 4.4
2019-Apr-10 15:00N 42°15' W 009°06'5 9.2
2019-Apr-10 14:30N 42°16' W 009°00'4 8.8
2019-Apr-10 14:00N 42°17' W 008°54'4 8.1
2019-Apr-10 13:30N 42°14' W 008°50'4 8.7
2019-Apr-10 13:01N 42°14' W 008°44'0 0.6
2019-Apr-10 12:18N 42°14' W 008°44'0 0.0
2019-Apr-10 11:51N 42°14' W 008°44'0 0.0
2019-Apr-10 10:12N 42°14' W 008°44'0 0.0
2019-Apr-10 09:42N 42°14' W 008°44'0 0.0
2019-Apr-10 09:00N 42°14' W 008°44'0 0.0
2019-Apr-10 08:30N 42°14' W 008°44'0 0.0
2019-Apr-10 07:33N 42°14' W 008°44'0 0.0
2019-Apr-10 07:21N 42°14' W 008°44'0 0.0
2019-Apr-10 04:54N 42°14' W 008°44'0 0.0
2019-Apr-10 04:21N 42°14' W 008°44'0 0.0
2019-Apr-10 00:36N 42°14' W 008°44'0 0.0
2019-Apr-09 23:48N 42°14' W 008°44'0 0.0
2019-Apr-09 23:30N 42°14' W 008°44'0 0.0
2019-Apr-09 22:36N 42°14' W 008°44'0 0.0
2019-Apr-09 20:39N 42°14' W 008°44'0 0.0
2019-Apr-09 19:39N 42°14' W 008°44'0 0.0
2019-Apr-09 18:39N 42°14' W 008°44'0 0.0
2019-Apr-09 18:27N 42°14' W 008°44'0 0.0
2019-Apr-09 18:00N 42°14' W 008°44'0 0.0
2019-Apr-09 17:27N 42°14' W 008°44'0 0.0
2019-Apr-09 16:51N 42°14' W 008°44'0 0.0
2019-Apr-09 16:27N 42°14' W 008°44'0 0.0
2019-Apr-09 15:42N 42°14' W 008°44'0 0.0
2019-Apr-09 14:56N 42°14' W 008°44'1 2.4
2019-Apr-09 14:30N 42°14' W 008°45'3 6.2
2019-Apr-09 14:00N 42°14' W 008°49'1 2.7
2019-Apr-09 13:30N 42°13' W 008°51'1 1.5
2019-Apr-09 13:00N 42°13' W 008°52'1 2.0
2019-Apr-09 12:30N 42°13' W 008°50'3 5.0
2019-Apr-09 12:00N 42°14' W 008°47'2 2.5
2019-Apr-09 11:06N 42°14' W 008°44'0 0.0
2019-Apr-09 10:33N 42°14' W 008°44'0 0.0
2019-Apr-09 10:27N 42°14' W 008°44'0 0.0
2019-Apr-09 09:42N 42°14' W 008°44'0 0.0
2019-Apr-09 09:00N 42°14' W 008°44'0 0.0
2019-Apr-09 08:27N 42°14' W 008°44'0 0.0
2019-Apr-09 07:42N 42°14' W 008°44'0 0.0
2019-Apr-09 07:27N 42°14' W 008°44'0 0.0
2019-Apr-09 06:06N 42°14' W 008°44'0 0.0
2019-Apr-09 05:57N 42°14' W 008°44'0 0.0
2019-Apr-09 05:30N 42°14' W 008°44'0 0.0
2019-Apr-09 05:00N 42°14' W 008°44'0 0.0
2019-Apr-09 04:27N 42°14' W 008°44'0 0.0
2019-Apr-09 03:57N 42°14' W 008°44'0 0.0
2019-Apr-09 03:30N 42°14' W 008°44'0 0.0
2019-Apr-09 02:45N 42°14' W 008°44'0 0.0
2019-Apr-09 02:09N 42°14' W 008°44'0 0.0
2019-Apr-09 02:00N 42°14' W 008°44'0 0.0
2019-Apr-09 01:12N 42°14' W 008°44'0 0.0
2019-Apr-09 00:30N 42°14' W 008°44'0 0.0
2019-Apr-08 21:57N 42°14' W 008°44'0 0.0
2019-Apr-08 20:57N 42°14' W 008°44'0 0.0
2019-Apr-08 20:27N 42°14' W 008°44'0 0.0
2019-Apr-08 19:36N 42°14' W 008°44'0 0.0
2019-Apr-08 19:03N 42°14' W 008°44'0 0.0
2019-Apr-08 15:39N 42°14' W 008°44'0 0.0
2019-Apr-08 15:30N 42°14' W 008°44'0 0.0
2019-Apr-08 14:33N 42°14' W 008°44'0 0.1
2019-Apr-08 14:27N 42°14' W 008°44'0 0.0
2019-Apr-08 13:03N 42°14' W 008°44'0 0.0
2019-Apr-08 12:36N 42°14' W 008°44'0 0.0
2019-Apr-08 12:27N 42°14' W 008°44'0 0.0
2019-Apr-08 12:00N 42°14' W 008°44'0 0.0
2019-Apr-08 11:30N 42°14' W 008°44'0 0.0
2019-Apr-08 11:00N 42°14' W 008°44'0 0.0
2019-Apr-08 10:30N 42°14' W 008°44'0 0.0
2019-Apr-08 09:57N 42°14' W 008°44'0 0.0
2019-Apr-08 09:30N 42°14' W 008°44'0 0.0
2019-Apr-08 08:57N 42°14' W 008°44'0 0.0
2019-Apr-08 08:30N 42°14' W 008°44'0 0.0
2019-Apr-08 08:00N 42°14' W 008°44'0 0.0
2019-Apr-08 07:24N 42°14' W 008°44'0 0.0
2019-Apr-08 07:00N 42°14' W 008°44'0 0.0
2019-Apr-08 06:06N 42°14' W 008°44'  
Track history (hours):
 
Tides and Currents Weather Stations Pressure Air Temp Water Temp Dewpoint Dewpoint Depression Visibility Wind Speed Wind Dir Waves Ship Positions

Oceanographic research ship Vizconde de Eza (Spain)

Detailed information on ship capabilities available from University of Delaware's Ocean Information Center.

Last reported at 2019-Apr-18 05:45 UTC. Time now 2019-Apr-18 10:21 UTC.
Position N 45°18' W 003°16'.

Length 53 m; draft 5.8 m.

Type: Other ship. MMSI: 224582000.

Date/timePositionNaut miles runAvg speedWind from/ knotsBaromVisibWave heightAir tempDewpointWater temp
2019-Apr-18 05:45N 45°18' W 003°16'2411.0
2019-Apr-18 03:31N 44°54' W 003°24'010.9
2019-Apr-18 03:30N 44°54' W 003°24'611.2
2019-Apr-18 02:59N 44°48' W 003°25'2611.1
2019-Apr-18 00:38N 44°22' W 003°32'2011.2
2019-Apr-17 22:54N 44°03' W 003°37'511.0
2019-Apr-17 22:26N 43°58' W 003°38'510.9
2019-Apr-17 21:57N 43°53' W 003°39'510.9
2019-Apr-17 21:30N 43°48' W 003°40'511.0
2019-Apr-17 21:00N 43°43' W 003°41'611.2
2019-Apr-17 20:30N 43°37' W 003°43'610.6
2019-Apr-17 19:59N 43°32' W 003°44'4 9.0
2019-Apr-17 19:30N 43°28' W 003°47'2 0.8
2019-Apr-17 17:09N 43°27' W 003°49'0 0.0
2019-Apr-17 14:51N 43°27' W 003°49'0 0.7
2019-Apr-17 14:30N 43°27' W 003°49'4 6.8
2019-Apr-17 13:59N 43°29' W 003°45'4 9.3
2019-Apr-17 13:30N 43°32' W 003°40'611.1
2019-Apr-17 13:00N 43°34' W 003°33'611.1
2019-Apr-17 12:30N 43°35' W 003°26'611.2
2019-Apr-17 12:00N 43°36' W 003°18'611.1
2019-Apr-17 11:30N 43°37' W 003°11'1 2.4
2019-Apr-17 11:00N 43°37' W 003°09'0 0.6
2019-Apr-17 10:30N 43°37' W 003°09'1 1.2
2019-Apr-17 10:00N 43°37' W 003°10'510.2
2019-Apr-17 09:30N 43°32' W 003°10'510.0
2019-Apr-17 09:00N 43°27' W 003°10'2 3.1
2019-Apr-17 08:30N 43°26' W 003°11'3 5.7
2019-Apr-17 08:00N 43°28' W 003°13'510.4
2019-Apr-17 07:30N 43°33' W 003°16'510.3
2019-Apr-17 07:00N 43°38' W 003°18'510.1
2019-Apr-17 06:30N 43°42' W 003°21'510.1
2019-Apr-17 06:00N 43°47' W 003°23'510.1
2019-Apr-17 05:30N 43°52' W 003°25'510.0
2019-Apr-17 05:00N 43°57' W 003°27'11 4.7
2019-Apr-17 02:42N 44°07' W 003°32'410.7
2019-Apr-17 02:18N 44°03' W 003°32'310.8
2019-Apr-17 02:00N 43°60' W 003°31'610.6
2019-Apr-17 01:28N 43°54' W 003°30'2 3.3
2019-Apr-17 01:00N 43°53' W 003°30'0 0.2
2019-Apr-17 00:30N 43°53' W 003°30'1 2.1
2019-Apr-17 00:00N 43°53' W 003°31'5 9.1
2019-Apr-16 23:30N 43°48' W 003°31'5 9.8
2019-Apr-16 23:00N 43°43' W 003°30'5 9.7
2019-Apr-16 22:30N 43°38' W 003°30'1 1.6
2019-Apr-16 22:00N 43°38' W 003°30'1 1.5
2019-Apr-16 21:30N 43°38' W 003°31'5 9.4
2019-Apr-16 21:00N 43°38' W 003°37'5 9.8
2019-Apr-16 20:30N 43°38' W 003°44'1 2.0
2019-Apr-16 20:00N 43°38' W 003°45'0 0.4
2019-Apr-16 19:30N 43°38' W 003°46'2 3.6
2019-Apr-16 19:00N 43°39' W 003°46'5 9.4
2019-Apr-16 18:30N 43°44' W 003°46'510.1
2019-Apr-16 18:00N 43°49' W 003°46'4 7.9
2019-Apr-16 17:30N 43°53' W 003°45'1 1.1
2019-Apr-16 16:59N 43°53' W 003°46'3 5.7
2019-Apr-16 16:28N 43°54' W 003°50'6 9.8
2019-Apr-16 15:53N 43°58' W 003°56'410.0
2019-Apr-16 15:30N 44°01' W 003°59'5 9.9
2019-Apr-16 15:00N 44°04' W 004°04'27 1.4
2019-Apr-15 18:39N 43°37' W 004°11'0 0.0
2019-Apr-15 18:27N 43°37' W 004°11'1 1.8
2019-Apr-15 17:51N 43°38' W 004°10'9 5.2
2019-Apr-15 16:05N 43°28' W 004°10'32 2.5
2019-Apr-15 03:31N 43°38' W 004°51'0 0.1
2019-Apr-15 03:30N 43°38' W 004°51'15 4.5
2019-Apr-15 00:16N 43°52' W 004°51'58 2.8
2019-Apr-14 03:34N 44°03' W 006°11'2 9.7
2019-Apr-14 03:24N 44°01' W 006°10'4 9.8
2019-Apr-14 03:00N 43°57' W 006°10'5 8.2
2019-Apr-14 02:24N 43°52' W 006°10'0 0.5
2019-Apr-14 02:00N 43°52' W 006°10'3 3.4
2019-Apr-14 01:07N 43°49' W 006°11'1 9.9
2019-Apr-14 01:00N 43°48' W 006°11'510.0
2019-Apr-14 00:30N 43°43' W 006°10'5 2.4
2019-Apr-13 22:17N 43°42' W 006°18'3 8.8
2019-Apr-13 21:58N 43°45' W 006°20'0 0.0
2019-Apr-13 21:30N 43°45' W 006°20'0 0.0
2019-Apr-13 21:00N 43°45' W 006°20'0 0.0
2019-Apr-13 20:30N 43°45' W 006°20'3 6.9
2019-Apr-13 20:00N 43°47' W 006°23'4 8.0
2019-Apr-13 19:30N 43°50' W 006°27'3 6.1
2019-Apr-13 19:00N 43°53' W 006°30'0 0.0
2019-Apr-13 17:39N 43°53' W 006°30'16 7.4
2019-Apr-13 15:34N 43°37' W 006°30'0 0.1
2019-Apr-13 15:25N 43°37' W 006°30'  
2019-Apr-10 16:51N 42°15' W 009°19'4 8.8
2019-Apr-10 16:25N 42°15' W 009°14'3 6.1
2019-Apr-10 16:00N 42°15' W 009°10'1 1.4
2019-Apr-10 15:28N 42°15' W 009°09'2 4.4
2019-Apr-10 15:00N 42°15' W 009°06'5 9.2
2019-Apr-10 14:30N 42°16' W 009°00'4 8.8
2019-Apr-10 14:00N 42°17' W 008°54'4 8.1
2019-Apr-10 13:30N 42°14' W 008°50'4 8.7
2019-Apr-10 13:01N 42°14' W 008°44'0 0.6
2019-Apr-10 12:18N 42°14' W 008°44'0 0.0
2019-Apr-10 11:51N 42°14' W 008°44'0 0.0
2019-Apr-10 10:12N 42°14' W 008°44'0 0.0
2019-Apr-10 09:42N 42°14' W 008°44'0 0.0
2019-Apr-10 09:00N 42°14' W 008°44'0 0.0
2019-Apr-10 08:30N 42°14' W 008°44'0 0.0
2019-Apr-10 07:33N 42°14' W 008°44'0 0.0
2019-Apr-10 07:21N 42°14' W 008°44'0 0.0
2019-Apr-10 04:54N 42°14' W 008°44'0 0.0
2019-Apr-10 04:21N 42°14' W 008°44'0 0.0
2019-Apr-10 00:36N 42°14' W 008°44'0 0.0
2019-Apr-09 23:48N 42°14' W 008°44'0 0.0
2019-Apr-09 23:30N 42°14' W 008°44'0 0.0
2019-Apr-09 22:36N 42°14' W 008°44'0 0.0
2019-Apr-09 20:39N 42°14' W 008°44'0 0.0
2019-Apr-09 19:39N 42°14' W 008°44'0 0.0
2019-Apr-09 18:39N 42°14' W 008°44'0 0.0
2019-Apr-09 18:27N 42°14' W 008°44'0 0.0
2019-Apr-09 18:00N 42°14' W 008°44'0 0.0
2019-Apr-09 17:27N 42°14' W 008°44'0 0.0
2019-Apr-09 16:51N 42°14' W 008°44'0 0.0
2019-Apr-09 16:27N 42°14' W 008°44'0 0.0
2019-Apr-09 15:42N 42°14' W 008°44'0 0.0
2019-Apr-09 14:56N 42°14' W 008°44'1 2.4
2019-Apr-09 14:30N 42°14' W 008°45'3 6.2
2019-Apr-09 14:00N 42°14' W 008°49'1 2.7
2019-Apr-09 13:30N 42°13' W 008°51'1 1.5
2019-Apr-09 13:00N 42°13' W 008°52'1 2.0
2019-Apr-09 12:30N 42°13' W 008°50'3 5.0
2019-Apr-09 12:00N 42°14' W 008°47'2 2.5
2019-Apr-09 11:06N 42°14' W 008°44'0 0.0
2019-Apr-09 10:33N 42°14' W 008°44'0 0.0
2019-Apr-09 10:27N 42°14' W 008°44'0 0.0
2019-Apr-09 09:42N 42°14' W 008°44'0 0.0
2019-Apr-09 09:00N 42°14' W 008°44'0 0.0
2019-Apr-09 08:27N 42°14' W 008°44'0 0.0
2019-Apr-09 07:42N 42°14' W 008°44'0 0.0
2019-Apr-09 07:27N 42°14' W 008°44'0 0.0
2019-Apr-09 06:06N 42°14' W 008°44'0 0.0
2019-Apr-09 05:57N 42°14' W 008°44'0 0.0
2019-Apr-09 05:30N 42°14' W 008°44'0 0.0
2019-Apr-09 05:00N 42°14' W 008°44'0 0.0
2019-Apr-09 04:27N 42°14' W 008°44'0 0.0
2019-Apr-09 03:57N 42°14' W 008°44'0 0.0
2019-Apr-09 03:30N 42°14' W 008°44'0 0.0
2019-Apr-09 02:45N 42°14' W 008°44'0 0.0
2019-Apr-09 02:09N 42°14' W 008°44'0 0.0
2019-Apr-09 02:00N 42°14' W 008°44'0 0.0
2019-Apr-09 01:12N 42°14' W 008°44'0 0.0
2019-Apr-09 00:30N 42°14' W 008°44'0 0.0
2019-Apr-08 21:57N 42°14' W 008°44'0 0.0
2019-Apr-08 20:57N 42°14' W 008°44'0 0.0
2019-Apr-08 20:27N 42°14' W 008°44'0 0.0
2019-Apr-08 19:36N 42°14' W 008°44'0 0.0
2019-Apr-08 19:03N 42°14' W 008°44'0 0.0
2019-Apr-08 15:39N 42°14' W 008°44'0 0.0
2019-Apr-08 15:30N 42°14' W 008°44'0 0.0
2019-Apr-08 14:33N 42°14' W 008°44'0 0.1
2019-Apr-08 14:27N 42°14' W 008°44'0 0.0
2019-Apr-08 13:03N 42°14' W 008°44'0 0.0
2019-Apr-08 12:36N 42°14' W 008°44'0 0.0
2019-Apr-08 12:27N 42°14' W 008°44'0 0.0
2019-Apr-08 12:00N 42°14' W 008°44'0 0.0
2019-Apr-08 11:30N 42°14' W 008°44'0 0.0
2019-Apr-08 11:00N 42°14' W 008°44'0 0.0
2019-Apr-08 10:30N 42°14' W 008°44'0 0.0
2019-Apr-08 09:57N 42°14' W 008°44'0 0.0
2019-Apr-08 09:30N 42°14' W 008°44'0 0.0
2019-Apr-08 08:57N 42°14' W 008°44'0 0.0
2019-Apr-08 08:30N 42°14' W 008°44'0 0.0
2019-Apr-08 08:00N 42°14' W 008°44'0 0.0
2019-Apr-08 07:24N 42°14' W 008°44'0 0.0
2019-Apr-08 07:00N 42°14' W 008°44'0 0.0
2019-Apr-08 06:06N 42°14' W 008°44'  

Dump ship's entire track history